Home   Weather   Bronx County   Past weeks
Flag for USA

Past Weather in Bronx County, New York, USA — July 2011

Currently: 72 °F. Sunny. (Weather station: New York City - Central Park, USA). See more current weather

July 2011 Weather in Bronx County — Graph

°F

High & Low Weather Summary for July 2011

 TemperatureHumidityPressure
High103 °F (Jul 22, 1:51 pm)100% (Jul 3, 8:51 am)30.17 "Hg (Jul 3, 8:51 am)
Low63 °F (Jul 1, 6:51 am)29% (Jul 5, 1:51 pm)29.65 "Hg (Jul 26, 5:51 pm)
Average79 °F64%29.91 "Hg
* Reported Jul 1 12:51 am — Jul 31 11:51 pm, Bronx County. Weather by CustomWeather, © 2021

Note: Actual official high and low records may vary slightly from our data, if they occured in-between our weather recording intervals... More about our weather records

Bronx County Weather History for July 1, 2011

Scroll right to see more
 ConditionsComfort  
Time TempWeatherWind HumidityBarometerVisibility
12:51 am
Fri, Jul 1
70 °FClear.No wind53%29.95 "Hg10 mi
1:51 am70 °FClear.5 mph53%29.96 "Hg10 mi
2:51 am69 °FClear.No wind51%29.96 "Hg10 mi
3:51 am66 °FClear.No wind56%29.96 "Hg10 mi
4:51 am66 °FClear.5 mph59%29.98 "Hg10 mi
5:51 am64 °FSunny.No wind58%30.00 "Hg10 mi
6:51 am63 °FSunny.3 mph63%30.01 "Hg10 mi
7:51 am67 °FSunny.6 mph53%30.01 "Hg10 mi
8:51 am70 °FSunny.6 mph47%30.01 "Hg10 mi
9:51 am73 °FSunny.6 mph44%30.00 "Hg10 mi
10:51 am76 °FSunny.8 mph42%29.99 "Hg10 mi
11:51 am79 °FSunny.8 mph39%29.98 "Hg10 mi
12:51 pm81 °FSunny.3 mph41%29.98 "Hg10 mi
1:51 pm82 °FSunny.No wind41%29.96 "Hg10 mi
2:51 pm82 °FScattered clouds.8 mph43%29.97 "Hg10 mi
3:51 pm80 °FScattered clouds.No wind45%29.98 "Hg10 mi
4:51 pm78 °FPassing clouds.No wind50%29.98 "Hg10 mi
5:51 pm79 °FPartly sunny.6 mph50%29.99 "Hg10 mi
6:51 pm78 °FScattered clouds.3 mph48%30.00 "Hg10 mi
7:51 pm79 °FOvercast.9 mph47%30.01 "Hg10 mi
8:51 pm77 °FPassing clouds.3 mph52%30.02 "Hg10 mi
9:51 pm74 °FClear.3 mph60%30.04 "Hg10 mi
10:51 pm73 °FClear.3 mph64%30.04 "Hg10 mi
11:51 pm72 °FClear.No wind64%30.05 "Hg10 mi
Weather by CustomWeather, © 2021

See weather overview